sensor_id;sensor_type;location;lat;lon;timestamp;P1;durP1;ratioP1;P2;durP2;ratioP2
71629;SDS011;59479;51.902;8.212;2023-06-22T00:02:04;4.20;;;1.37;;
71629;SDS011;59479;51.902;8.212;2023-06-22T00:04:29;3.90;;;1.80;;
71629;SDS011;59479;51.902;8.212;2023-06-22T00:06:54;3.77;;;1.73;;
71629;SDS011;59479;51.902;8.212;2023-06-22T00:09:20;5.40;;;2.00;;
71629;SDS011;59479;51.902;8.212;2023-06-22T00:11:45;4.33;;;2.40;;
71629;SDS011;59479;51.902;8.212;2023-06-22T00:14:10;3.50;;;1.87;;
71629;SDS011;59479;51.902;8.212;2023-06-22T00:16:36;3.10;;;1.67;;
71629;SDS011;59479;51.902;8.212;2023-06-22T00:19:01;3.17;;;1.67;;
71629;SDS011;59479;51.902;8.212;2023-06-22T00:21:27;3.95;;;1.65;;
71629;SDS011;59479;51.902;8.212;2023-06-22T00:23:53;4.78;;;2.03;;
71629;SDS011;59479;51.902;8.212;2023-06-22T00:26:19;4.10;;;1.93;;
71629;SDS011;59479;51.902;8.212;2023-06-22T00:28:44;3.80;;;2.00;;
71629;SDS011;59479;51.902;8.212;2023-06-22T00:31:10;3.55;;;1.95;;
71629;SDS011;59479;51.902;8.212;2023-06-22T00:33:35;3.50;;;1.90;;
71629;SDS011;59479;51.902;8.212;2023-06-22T00:36:00;3.60;;;1.73;;
71629;SDS011;59479;51.902;8.212;2023-06-22T00:38:28;5.97;;;2.33;;
71629;SDS011;59479;51.902;8.212;2023-06-22T00:40:53;3.83;;;2.23;;
71629;SDS011;59479;51.902;8.212;2023-06-22T00:43:18;4.57;;;2.93;;
71629;SDS011;59479;51.902;8.212;2023-06-22T00:45:44;3.92;;;2.08;;
71629;SDS011;59479;51.902;8.212;2023-06-22T00:48:09;3.60;;;2.20;;
71629;SDS011;59479;51.902;8.212;2023-06-22T00:50:34;4.00;;;2.10;;
71629;SDS011;59479;51.902;8.212;2023-06-22T00:53:01;4.00;;;2.30;;
71629;SDS011;59479;51.902;8.212;2023-06-22T00:55:33;3.60;;;1.90;;
71629;SDS011;59479;51.902;8.212;2023-06-22T00:58:04;4.38;;;2.28;;
71629;SDS011;59479;51.902;8.212;2023-06-22T01:00:33;4.10;;;2.65;;
71629;SDS011;59479;51.902;8.212;2023-06-22T01:02:58;4.47;;;2.00;;
71629;SDS011;59479;51.902;8.212;2023-06-22T01:05:24;4.40;;;2.22;;
71629;SDS011;59479;51.902;8.212;2023-06-22T01:07:53;4.73;;;2.17;;
71629;SDS011;59479;51.902;8.212;2023-06-22T01:10:32;4.53;;;2.78;;
71629;SDS011;59479;51.902;8.212;2023-06-22T01:13:23;4.40;;;3.00;;
71629;SDS011;59479;51.902;8.212;2023-06-22T01:16:02;4.50;;;2.20;;
71629;SDS011;59479;51.902;8.212;2023-06-22T01:18:30;3.92;;;2.25;;
71629;SDS011;59479;51.902;8.212;2023-06-22T01:20:58;3.88;;;2.33;;
71629;SDS011;59479;51.902;8.212;2023-06-22T01:23:29;4.22;;;2.47;;
71629;SDS011;59479;51.902;8.212;2023-06-22T01:26:15;5.43;;;2.65;;
71629;SDS011;59479;51.902;8.212;2023-06-22T01:28:50;4.07;;;2.58;;
71629;SDS011;59479;51.902;8.212;2023-06-22T01:31:18;3.75;;;2.05;;
71629;SDS011;59479;51.902;8.212;2023-06-22T01:33:48;4.15;;;2.13;;
71629;SDS011;59479;51.902;8.212;2023-06-22T01:36:19;4.15;;;2.70;;
71629;SDS011;59479;51.902;8.212;2023-06-22T01:38:47;4.68;;;2.50;;
71629;SDS011;59479;51.902;8.212;2023-06-22T01:41:12;4.63;;;2.60;;
71629;SDS011;59479;51.902;8.212;2023-06-22T01:43:38;3.80;;;2.00;;
71629;SDS011;59479;51.902;8.212;2023-06-22T01:46:04;4.70;;;1.83;;
71629;SDS011;59479;51.902;8.212;2023-06-22T01:48:29;5.07;;;2.43;;
71629;SDS011;59479;51.902;8.212;2023-06-22T01:53:28;4.93;;;2.72;;
71629;SDS011;59479;51.902;8.212;2023-06-22T01:55:59;5.03;;;2.80;;
71629;SDS011;59479;51.902;8.212;2023-06-22T01:58:25;4.20;;;2.03;;
71629;SDS011;59479;51.902;8.212;2023-06-22T02:01:13;4.67;;;2.07;;
71629;SDS011;59479;51.902;8.212;2023-06-22T02:03:41;4.82;;;2.55;;
71629;SDS011;59479;51.902;8.212;2023-06-22T02:06:21;4.80;;;2.47;;
71629;SDS011;59479;51.902;8.212;2023-06-22T02:08:51;3.67;;;1.88;;
71629;SDS011;59479;51.902;8.212;2023-06-22T02:11:22;4.28;;;2.38;;
71629;SDS011;59479;51.902;8.212;2023-06-22T02:13:52;4.67;;;2.53;;
71629;SDS011;59479;51.902;8.212;2023-06-22T02:16:18;5.03;;;2.88;;
71629;SDS011;59479;51.902;8.212;2023-06-22T02:18:47;4.53;;;2.40;;
71629;SDS011;59479;51.902;8.212;2023-06-22T02:21:15;4.97;;;2.55;;
71629;SDS011;59479;51.902;8.212;2023-06-22T02:23:41;4.55;;;2.55;;
71629;SDS011;59479;51.902;8.212;2023-06-22T02:26:06;3.77;;;1.80;;
71629;SDS011;59479;51.902;8.212;2023-06-22T02:28:32;4.47;;;2.67;;
71629;SDS011;59479;51.902;8.212;2023-06-22T02:30:57;4.17;;;2.63;;
71629;SDS011;59479;51.902;8.212;2023-06-22T02:33:23;5.40;;;3.00;;
71629;SDS011;59479;51.902;8.212;2023-06-22T02:35:48;4.70;;;2.47;;
71629;SDS011;59479;51.902;8.212;2023-06-22T02:38:14;5.30;;;2.43;;
71629;SDS011;59479;51.902;8.212;2023-06-22T02:40:40;4.57;;;2.72;;
71629;SDS011;59479;51.902;8.212;2023-06-22T02:43:05;4.27;;;2.37;;
71629;SDS011;59479;51.902;8.212;2023-06-22T02:45:30;4.67;;;2.97;;
71629;SDS011;59479;51.902;8.212;2023-06-22T02:47:56;5.80;;;2.60;;
71629;SDS011;59479;51.902;8.212;2023-06-22T02:50:21;4.73;;;2.57;;
71629;SDS011;59479;51.902;8.212;2023-06-22T02:52:47;6.63;;;2.80;;
71629;SDS011;59479;51.902;8.212;2023-06-22T02:55:12;4.17;;;2.50;;
71629;SDS011;59479;51.902;8.212;2023-06-22T02:57:37;5.33;;;3.10;;
71629;SDS011;59479;51.902;8.212;2023-06-22T03:00:08;4.72;;;2.55;;
71629;SDS011;59479;51.902;8.212;2023-06-22T03:02:46;5.88;;;3.30;;
71629;SDS011;59479;51.902;8.212;2023-06-22T03:05:12;5.80;;;2.88;;
71629;SDS011;59479;51.902;8.212;2023-06-22T03:07:43;4.65;;;3.20;;
71629;SDS011;59479;51.902;8.212;2023-06-22T03:10:09;4.80;;;3.05;;
71629;SDS011;59479;51.902;8.212;2023-06-22T03:12:36;4.78;;;2.97;;
71629;SDS011;59479;51.902;8.212;2023-06-22T03:15:12;5.70;;;3.20;;
71629;SDS011;59479;51.902;8.212;2023-06-22T03:17:42;5.45;;;2.83;;
71629;SDS011;59479;51.902;8.212;2023-06-22T03:20:08;8.37;;;3.03;;
71629;SDS011;59479;51.902;8.212;2023-06-22T03:22:38;5.25;;;3.53;;
71629;SDS011;59479;51.902;8.212;2023-06-22T03:25:05;4.33;;;2.50;;
71629;SDS011;59479;51.902;8.212;2023-06-22T03:27:44;5.53;;;2.70;;
71629;SDS011;59479;51.902;8.212;2023-06-22T03:30:10;4.75;;;2.50;;
71629;SDS011;59479;51.902;8.212;2023-06-22T03:32:36;4.40;;;2.63;;
71629;SDS011;59479;51.902;8.212;2023-06-22T03:35:02;7.20;;;2.97;;
71629;SDS011;59479;51.902;8.212;2023-06-22T03:37:28;4.57;;;2.80;;
71629;SDS011;59479;51.902;8.212;2023-06-22T03:39:54;3.95;;;2.30;;
71629;SDS011;59479;51.902;8.212;2023-06-22T03:42:19;6.20;;;3.13;;
71629;SDS011;59479;51.902;8.212;2023-06-22T03:44:45;5.72;;;3.03;;
71629;SDS011;59479;51.902;8.212;2023-06-22T03:50:22;5.43;;;3.28;;
71629;SDS011;59479;51.902;8.212;2023-06-22T03:52:48;6.88;;;3.47;;
71629;SDS011;59479;51.902;8.212;2023-06-22T03:55:13;9.50;;;3.43;;
71629;SDS011;59479;51.902;8.212;2023-06-22T03:57:38;4.40;;;2.20;;
71629;SDS011;59479;51.902;8.212;2023-06-22T04:00:04;5.13;;;3.20;;
71629;SDS011;59479;51.902;8.212;2023-06-22T04:02:33;6.10;;;3.00;;
71629;SDS011;59479;51.902;8.212;2023-06-22T04:04:58;4.47;;;2.60;;
71629;SDS011;59479;51.902;8.212;2023-06-22T04:07:23;5.30;;;3.57;;
71629;SDS011;59479;51.902;8.212;2023-06-22T04:09:49;5.27;;;3.30;;
71629;SDS011;59479;51.902;8.212;2023-06-22T04:12:14;6.05;;;3.20;;
71629;SDS011;59479;51.902;8.212;2023-06-22T04:14:39;5.93;;;3.50;;
71629;SDS011;59479;51.902;8.212;2023-06-22T04:17:05;5.03;;;2.80;;
71629;SDS011;59479;51.902;8.212;2023-06-22T04:19:30;7.20;;;3.50;;
71629;SDS011;59479;51.902;8.212;2023-06-22T04:21:56;5.77;;;2.70;;
71629;SDS011;59479;51.902;8.212;2023-06-22T04:24:21;5.77;;;3.23;;
71629;SDS011;59479;51.902;8.212;2023-06-22T04:26:46;5.45;;;3.20;;
71629;SDS011;59479;51.902;8.212;2023-06-22T04:29:12;4.77;;;2.90;;
71629;SDS011;59479;51.902;8.212;2023-06-22T04:31:38;5.03;;;3.05;;
71629;SDS011;59479;51.902;8.212;2023-06-22T04:34:04;4.93;;;2.70;;
71629;SDS011;59479;51.902;8.212;2023-06-22T04:36:33;5.70;;;3.65;;
71629;SDS011;59479;51.902;8.212;2023-06-22T04:39:03;6.70;;;2.97;;
71629;SDS011;59479;51.902;8.212;2023-06-22T04:41:29;4.85;;;2.90;;
71629;SDS011;59479;51.902;8.212;2023-06-22T04:43:55;4.83;;;3.00;;
71629;SDS011;59479;51.902;8.212;2023-06-22T04:46:25;6.13;;;3.67;;
71629;SDS011;59479;51.902;8.212;2023-06-22T04:48:50;5.17;;;3.07;;
71629;SDS011;59479;51.902;8.212;2023-06-22T04:51:15;6.50;;;3.43;;
71629;SDS011;59479;51.902;8.212;2023-06-22T04:53:41;4.40;;;2.83;;
71629;SDS011;59479;51.902;8.212;2023-06-22T04:56:06;5.63;;;3.53;;
71629;SDS011;59479;51.902;8.212;2023-06-22T04:58:31;5.18;;;3.03;;
71629;SDS011;59479;51.902;8.212;2023-06-22T05:00:57;6.07;;;3.67;;
71629;SDS011;59479;51.902;8.212;2023-06-22T05:03:24;5.88;;;3.15;;
71629;SDS011;59479;51.902;8.212;2023-06-22T05:05:50;6.15;;;3.72;;
71629;SDS011;59479;51.902;8.212;2023-06-22T05:08:16;5.93;;;3.20;;
71629;SDS011;59479;51.902;8.212;2023-06-22T05:10:42;5.75;;;3.45;;
71629;SDS011;59479;51.902;8.212;2023-06-22T05:13:08;5.90;;;3.80;;
71629;SDS011;59479;51.902;8.212;2023-06-22T05:15:33;5.40;;;3.03;;
71629;SDS011;59479;51.902;8.212;2023-06-22T05:18:04;4.78;;;3.00;;
71629;SDS011;59479;51.902;8.212;2023-06-22T05:20:30;7.53;;;4.03;;
71629;SDS011;59479;51.902;8.212;2023-06-22T05:22:55;6.53;;;3.50;;
71629;SDS011;59479;51.902;8.212;2023-06-22T05:25:21;5.28;;;3.08;;
71629;SDS011;59479;51.902;8.212;2023-06-22T05:27:46;5.88;;;3.17;;
71629;SDS011;59479;51.902;8.212;2023-06-22T05:30:12;5.37;;;2.87;;
71629;SDS011;59479;51.902;8.212;2023-06-22T05:32:37;5.50;;;3.20;;
71629;SDS011;59479;51.902;8.212;2023-06-22T05:35:03;6.32;;;3.75;;
71629;SDS011;59479;51.902;8.212;2023-06-22T05:37:29;6.87;;;3.80;;
71629;SDS011;59479;51.902;8.212;2023-06-22T05:39:57;7.07;;;3.50;;
71629;SDS011;59479;51.902;8.212;2023-06-22T05:42:23;7.90;;;3.77;;
71629;SDS011;59479;51.902;8.212;2023-06-22T05:44:50;5.95;;;3.63;;
71629;SDS011;59479;51.902;8.212;2023-06-22T05:47:16;7.22;;;3.80;;
71629;SDS011;59479;51.902;8.212;2023-06-22T05:49:41;6.27;;;3.77;;
71629;SDS011;59479;51.902;8.212;2023-06-22T05:52:06;6.30;;;3.57;;
71629;SDS011;59479;51.902;8.212;2023-06-22T05:54:32;5.77;;;3.90;;
71629;SDS011;59479;51.902;8.212;2023-06-22T05:56:57;6.40;;;3.40;;
71629;SDS011;59479;51.902;8.212;2023-06-22T05:59:22;6.27;;;3.93;;
71629;SDS011;59479;51.902;8.212;2023-06-22T06:01:48;6.35;;;3.40;;
71629;SDS011;59479;51.902;8.212;2023-06-22T06:04:17;7.05;;;3.85;;
71629;SDS011;59479;51.902;8.212;2023-06-22T06:06:43;8.52;;;4.10;;
71629;SDS011;59479;51.902;8.212;2023-06-22T06:09:08;6.67;;;4.13;;
71629;SDS011;59479;51.902;8.212;2023-06-22T06:11:34;7.47;;;4.03;;
71629;SDS011;59479;51.902;8.212;2023-06-22T06:13:59;6.35;;;3.75;;
71629;SDS011;59479;51.902;8.212;2023-06-22T06:16:24;7.18;;;3.83;;
71629;SDS011;59479;51.902;8.212;2023-06-22T06:18:50;6.70;;;3.77;;
71629;SDS011;59479;51.902;8.212;2023-06-22T06:21:15;6.50;;;4.07;;
71629;SDS011;59479;51.902;8.212;2023-06-22T06:23:41;6.13;;;3.47;;
71629;SDS011;59479;51.902;8.212;2023-06-22T06:26:07;5.00;;;3.33;;
71629;SDS011;59479;51.902;8.212;2023-06-22T06:28:32;5.72;;;3.22;;
71629;SDS011;59479;51.902;8.212;2023-06-22T06:30:58;7.63;;;4.00;;
71629;SDS011;59479;51.902;8.212;2023-06-22T06:33:24;5.10;;;3.20;;
71629;SDS011;59479;51.902;8.212;2023-06-22T06:35:49;5.97;;;3.40;;
71629;SDS011;59479;51.902;8.212;2023-06-22T06:38:15;5.43;;;3.93;;
71629;SDS011;59479;51.902;8.212;2023-06-22T06:40:40;5.05;;;3.00;;
71629;SDS011;59479;51.902;8.212;2023-06-22T06:43:06;6.03;;;3.17;;
71629;SDS011;59479;51.902;8.212;2023-06-22T06:45:31;6.20;;;3.50;;
71629;SDS011;59479;51.902;8.212;2023-06-22T06:47:58;7.10;;;3.08;;
71629;SDS011;59479;51.902;8.212;2023-06-22T06:50:23;5.27;;;2.90;;
71629;SDS011;59479;51.902;8.212;2023-06-22T06:52:48;7.33;;;3.87;;
71629;SDS011;59479;51.902;8.212;2023-06-22T06:55:15;5.35;;;3.47;;
71629;SDS011;59479;51.902;8.212;2023-06-22T06:57:41;6.17;;;3.90;;
71629;SDS011;59479;51.902;8.212;2023-06-22T07:00:08;7.20;;;3.75;;
71629;SDS011;59479;51.902;8.212;2023-06-22T07:02:37;7.55;;;4.00;;
71629;SDS011;59479;51.902;8.212;2023-06-22T07:05:04;6.00;;;3.78;;
71629;SDS011;59479;51.902;8.212;2023-06-22T07:07:30;6.47;;;3.67;;
71629;SDS011;59479;51.902;8.212;2023-06-22T07:09:55;6.35;;;3.67;;
71629;SDS011;59479;51.902;8.212;2023-06-22T07:12:21;7.50;;;4.40;;
71629;SDS011;59479;51.902;8.212;2023-06-22T07:14:46;7.37;;;3.90;;
71629;SDS011;59479;51.902;8.212;2023-06-22T07:17:11;7.10;;;3.43;;
71629;SDS011;59479;51.902;8.212;2023-06-22T07:19:37;8.00;;;4.10;;
71629;SDS011;59479;51.902;8.212;2023-06-22T07:22:02;6.87;;;3.53;;
71629;SDS011;59479;51.902;8.212;2023-06-22T07:24:28;6.50;;;4.15;;
71629;SDS011;59479;51.902;8.212;2023-06-22T07:26:53;5.87;;;3.43;;
71629;SDS011;59479;51.902;8.212;2023-06-22T07:29:20;6.25;;;3.92;;
71629;SDS011;59479;51.902;8.212;2023-06-22T07:31:46;5.57;;;3.33;;
71629;SDS011;59479;51.902;8.212;2023-06-22T07:34:12;6.20;;;3.67;;
71629;SDS011;59479;51.902;8.212;2023-06-22T07:36:37;6.00;;;4.00;;
71629;SDS011;59479;51.902;8.212;2023-06-22T07:39:03;6.30;;;3.67;;
71629;SDS011;59479;51.902;8.212;2023-06-22T07:41:50;6.88;;;3.75;;
71629;SDS011;59479;51.902;8.212;2023-06-22T07:44:16;6.20;;;4.10;;
71629;SDS011;59479;51.902;8.212;2023-06-22T07:46:41;6.13;;;3.83;;
71629;SDS011;59479;51.902;8.212;2023-06-22T07:49:07;6.50;;;4.60;;
71629;SDS011;59479;51.902;8.212;2023-06-22T07:51:33;6.63;;;3.58;;
71629;SDS011;59479;51.902;8.212;2023-06-22T07:53:59;7.90;;;4.95;;
71629;SDS011;59479;51.902;8.212;2023-06-22T07:56:24;7.27;;;4.13;;
71629;SDS011;59479;51.902;8.212;2023-06-22T07:58:50;6.93;;;4.70;;
71629;SDS011;59479;51.902;8.212;2023-06-22T08:01:15;6.83;;;3.60;;
71629;SDS011;59479;51.902;8.212;2023-06-22T08:03:41;6.85;;;4.28;;
71629;SDS011;59479;51.902;8.212;2023-06-22T08:06:07;5.78;;;3.83;;
71629;SDS011;59479;51.902;8.212;2023-06-22T08:08:34;7.15;;;4.30;;
71629;SDS011;59479;51.902;8.212;2023-06-22T08:11:00;6.57;;;4.40;;
71629;SDS011;59479;51.902;8.212;2023-06-22T08:13:25;6.83;;;4.27;;
71629;SDS011;59479;51.902;8.212;2023-06-22T08:15:50;7.27;;;3.83;;
71629;SDS011;59479;51.902;8.212;2023-06-22T08:18:16;8.77;;;3.85;;
71629;SDS011;59479;51.902;8.212;2023-06-22T08:20:41;7.87;;;4.07;;
71629;SDS011;59479;51.902;8.212;2023-06-22T08:23:07;6.10;;;3.90;;
71629;SDS011;59479;51.902;8.212;2023-06-22T08:25:33;5.83;;;3.90;;
71629;SDS011;59479;51.902;8.212;2023-06-22T08:27:59;6.85;;;3.75;;
71629;SDS011;59479;51.902;8.212;2023-06-22T08:30:25;5.93;;;3.53;;
71629;SDS011;59479;51.902;8.212;2023-06-22T08:32:50;5.70;;;3.40;;
71629;SDS011;59479;51.902;8.212;2023-06-22T08:35:15;5.23;;;3.47;;
71629;SDS011;59479;51.902;8.212;2023-06-22T08:37:41;4.90;;;2.90;;
71629;SDS011;59479;51.902;8.212;2023-06-22T08:40:07;4.55;;;2.85;;
71629;SDS011;59479;51.902;8.212;2023-06-22T08:42:35;5.47;;;3.33;;
71629;SDS011;59479;51.902;8.212;2023-06-22T08:45:01;4.15;;;2.67;;
71629;SDS011;59479;51.902;8.212;2023-06-22T08:47:29;5.77;;;3.03;;
71629;SDS011;59479;51.902;8.212;2023-06-22T08:49:54;5.90;;;2.83;;
71629;SDS011;59479;51.902;8.212;2023-06-22T08:52:20;4.83;;;2.60;;
71629;SDS011;59479;51.902;8.212;2023-06-22T08:54:46;5.00;;;3.03;;
71629;SDS011;59479;51.902;8.212;2023-06-22T08:57:12;4.35;;;2.80;;
71629;SDS011;59479;51.902;8.212;2023-06-22T08:59:37;6.23;;;3.17;;
71629;SDS011;59479;51.902;8.212;2023-06-22T09:02:02;4.17;;;2.60;;
71629;SDS011;59479;51.902;8.212;2023-06-22T09:04:28;5.60;;;3.13;;
71629;SDS011;59479;51.902;8.212;2023-06-22T09:06:54;5.57;;;3.13;;
71629;SDS011;59479;51.902;8.212;2023-06-22T09:09:20;5.53;;;3.50;;
71629;SDS011;59479;51.902;8.212;2023-06-22T09:11:46;5.30;;;3.28;;
71629;SDS011;59479;51.902;8.212;2023-06-22T09:14:12;4.30;;;2.73;;
71629;SDS011;59479;51.902;8.212;2023-06-22T09:16:38;5.10;;;2.80;;
71629;SDS011;59479;51.902;8.212;2023-06-22T09:19:03;5.30;;;2.83;;
71629;SDS011;59479;51.902;8.212;2023-06-22T09:21:29;4.90;;;3.00;;
71629;SDS011;59479;51.902;8.212;2023-06-22T09:23:54;4.40;;;2.27;;
71629;SDS011;59479;51.902;8.212;2023-06-22T09:26:20;5.27;;;2.90;;
71629;SDS011;59479;51.902;8.212;2023-06-22T09:28:46;4.85;;;2.70;;
71629;SDS011;59479;51.902;8.212;2023-06-22T09:31:12;5.57;;;2.87;;
71629;SDS011;59479;51.902;8.212;2023-06-22T09:33:37;5.15;;;3.22;;
71629;SDS011;59479;51.902;8.212;2023-06-22T09:36:06;4.35;;;2.58;;
71629;SDS011;59479;51.902;8.212;2023-06-22T09:38:35;5.57;;;3.15;;
71629;SDS011;59479;51.902;8.212;2023-06-22T09:41:03;6.60;;;2.95;;
71629;SDS011;59479;51.902;8.212;2023-06-22T09:43:30;4.63;;;2.70;;
71629;SDS011;59479;51.902;8.212;2023-06-22T09:45:56;4.38;;;2.60;;
71629;SDS011;59479;51.902;8.212;2023-06-22T09:48:22;5.43;;;2.97;;
71629;SDS011;59479;51.902;8.212;2023-06-22T09:50:47;4.80;;;2.93;;
71629;SDS011;59479;51.902;8.212;2023-06-22T09:53:12;4.50;;;2.90;;
71629;SDS011;59479;51.902;8.212;2023-06-22T09:55:38;3.77;;;2.10;;
71629;SDS011;59479;51.902;8.212;2023-06-22T09:58:03;4.27;;;2.50;;
71629;SDS011;59479;51.902;8.212;2023-06-22T10:00:28;4.60;;;2.20;;
71629;SDS011;59479;51.902;8.212;2023-06-22T10:02:54;4.23;;;2.60;;
71629;SDS011;59479;51.902;8.212;2023-06-22T10:05:21;4.00;;;2.28;;
71629;SDS011;59479;51.902;8.212;2023-06-22T10:07:46;4.35;;;2.53;;
71629;SDS011;59479;51.902;8.212;2023-06-22T10:10:12;4.87;;;3.13;;
71629;SDS011;59479;51.902;8.212;2023-06-22T10:12:42;4.93;;;2.58;;
71629;SDS011;59479;51.902;8.212;2023-06-22T10:15:19;4.00;;;2.40;;
71629;SDS011;59479;51.902;8.212;2023-06-22T10:17:44;4.18;;;2.28;;
71629;SDS011;59479;51.902;8.212;2023-06-22T10:20:10;5.28;;;2.90;;
71629;SDS011;59479;51.902;8.212;2023-06-22T10:22:41;5.13;;;2.00;;
71629;SDS011;59479;51.902;8.212;2023-06-22T10:25:08;4.50;;;2.45;;
71629;SDS011;59479;51.902;8.212;2023-06-22T10:27:36;4.03;;;2.33;;
71629;SDS011;59479;51.902;8.212;2023-06-22T10:30:04;4.18;;;2.50;;
71629;SDS011;59479;51.902;8.212;2023-06-22T10:32:31;4.82;;;2.83;;
71629;SDS011;59479;51.902;8.212;2023-06-22T10:34:56;4.57;;;2.70;;
71629;SDS011;59479;51.902;8.212;2023-06-22T10:37:22;4.00;;;2.40;;
71629;SDS011;59479;51.902;8.212;2023-06-22T10:39:47;5.17;;;2.60;;
71629;SDS011;59479;51.902;8.212;2023-06-22T10:42:12;4.57;;;2.03;;
71629;SDS011;59479;51.902;8.212;2023-06-22T10:44:38;4.43;;;2.55;;
71629;SDS011;59479;51.902;8.212;2023-06-22T10:47:06;4.43;;;2.57;;
71629;SDS011;59479;51.902;8.212;2023-06-22T10:49:31;4.75;;;2.97;;
71629;SDS011;59479;51.902;8.212;2023-06-22T10:51:57;4.80;;;2.60;;
71629;SDS011;59479;51.902;8.212;2023-06-22T10:54:22;4.73;;;2.73;;
71629;SDS011;59479;51.902;8.212;2023-06-22T10:56:47;4.53;;;2.63;;
71629;SDS011;59479;51.902;8.212;2023-06-22T10:59:13;5.03;;;2.50;;
71629;SDS011;59479;51.902;8.212;2023-06-22T11:01:38;4.30;;;2.53;;
71629;SDS011;59479;51.902;8.212;2023-06-22T11:04:03;4.63;;;2.53;;
71629;SDS011;59479;51.902;8.212;2023-06-22T11:06:29;3.83;;;2.00;;
71629;SDS011;59479;51.902;8.212;2023-06-22T11:08:54;3.80;;;2.00;;
71629;SDS011;59479;51.902;8.212;2023-06-22T11:11:20;4.70;;;2.40;;
71629;SDS011;59479;51.902;8.212;2023-06-22T11:13:45;4.73;;;2.50;;
71629;SDS011;59479;51.902;8.212;2023-06-22T11:16:10;4.20;;;2.77;;
71629;SDS011;59479;51.902;8.212;2023-06-22T11:18:36;5.57;;;3.30;;
71629;SDS011;59479;51.902;8.212;2023-06-22T11:21:01;5.82;;;2.58;;
71629;SDS011;59479;51.902;8.212;2023-06-22T11:23:26;4.05;;;2.33;;
71629;SDS011;59479;51.902;8.212;2023-06-22T11:25:53;4.43;;;2.37;;
71629;SDS011;59479;51.902;8.212;2023-06-22T11:28:18;6.55;;;3.20;;
71629;SDS011;59479;51.902;8.212;2023-06-22T11:30:43;4.93;;;2.80;;
71629;SDS011;59479;51.902;8.212;2023-06-22T11:33:09;4.90;;;2.90;;
71629;SDS011;59479;51.902;8.212;2023-06-22T11:35:34;4.87;;;2.80;;
71629;SDS011;59479;51.902;8.212;2023-06-22T11:37:59;4.80;;;2.53;;
71629;SDS011;59479;51.902;8.212;2023-06-22T11:40:25;5.67;;;2.87;;
71629;SDS011;59479;51.902;8.212;2023-06-22T11:42:50;4.63;;;2.77;;
71629;SDS011;59479;51.902;8.212;2023-06-22T11:45:15;5.13;;;2.50;;
71629;SDS011;59479;51.902;8.212;2023-06-22T11:47:42;4.93;;;2.85;;
71629;SDS011;59479;51.902;8.212;2023-06-22T11:50:07;4.23;;;2.80;;
71629;SDS011;59479;51.902;8.212;2023-06-22T11:52:33;4.32;;;2.13;;
71629;SDS011;59479;51.902;8.212;2023-06-22T11:55:00;5.03;;;2.72;;
71629;SDS011;59479;51.902;8.212;2023-06-22T11:57:28;4.53;;;2.90;;
71629;SDS011;59479;51.902;8.212;2023-06-22T11:59:54;4.22;;;2.30;;
71629;SDS011;59479;51.902;8.212;2023-06-22T12:02:19;4.57;;;2.30;;
71629;SDS011;59479;51.902;8.212;2023-06-22T12:04:44;5.20;;;3.27;;
71629;SDS011;59479;51.902;8.212;2023-06-22T12:07:10;4.37;;;2.47;;
71629;SDS011;59479;51.902;8.212;2023-06-22T12:09:35;5.07;;;2.60;;
71629;SDS011;59479;51.902;8.212;2023-06-22T12:12:00;5.90;;;3.17;;
71629;SDS011;59479;51.902;8.212;2023-06-22T12:14:26;4.70;;;2.67;;
71629;SDS011;59479;51.902;8.212;2023-06-22T12:16:51;5.00;;;2.75;;
71629;SDS011;59479;51.902;8.212;2023-06-22T12:19:16;4.00;;;2.33;;
71629;SDS011;59479;51.902;8.212;2023-06-22T12:21:41;4.30;;;2.50;;
71629;SDS011;59479;51.902;8.212;2023-06-22T12:24:10;4.15;;;2.78;;
71629;SDS011;59479;51.902;8.212;2023-06-22T12:26:35;4.72;;;2.70;;
71629;SDS011;59479;51.902;8.212;2023-06-22T12:29:01;4.80;;;2.70;;
71629;SDS011;59479;51.902;8.212;2023-06-22T12:31:26;4.77;;;3.07;;
71629;SDS011;59479;51.902;8.212;2023-06-22T12:33:51;5.00;;;2.83;;
71629;SDS011;59479;51.902;8.212;2023-06-22T12:36:17;4.47;;;2.40;;
71629;SDS011;59479;51.902;8.212;2023-06-22T12:38:42;5.15;;;2.83;;
71629;SDS011;59479;51.902;8.212;2023-06-22T12:41:08;4.90;;;2.97;;
71629;SDS011;59479;51.902;8.212;2023-06-22T12:43:33;5.17;;;2.93;;
71629;SDS011;59479;51.902;8.212;2023-06-22T12:45:59;5.50;;;3.43;;
71629;SDS011;59479;51.902;8.212;2023-06-22T12:48:25;5.07;;;2.80;;
71629;SDS011;59479;51.902;8.212;2023-06-22T12:50:51;5.13;;;2.83;;
71629;SDS011;59479;51.902;8.212;2023-06-22T12:53:16;4.90;;;2.73;;
71629;SDS011;59479;51.902;8.212;2023-06-22T12:55:42;6.22;;;2.88;;
71629;SDS011;59479;51.902;8.212;2023-06-22T12:58:07;6.32;;;3.25;;
71629;SDS011;59479;51.902;8.212;2023-06-22T13:00:32;6.60;;;3.30;;
71629;SDS011;59479;51.902;8.212;2023-06-22T13:02:57;5.00;;;3.10;;
71629;SDS011;59479;51.902;8.212;2023-06-22T13:05:23;5.43;;;3.67;;
71629;SDS011;59479;51.902;8.212;2023-06-22T13:07:48;5.63;;;3.80;;
71629;SDS011;59479;51.902;8.212;2023-06-22T13:10:14;6.90;;;3.97;;
71629;SDS011;59479;51.902;8.212;2023-06-22T13:12:39;6.80;;;3.67;;
71629;SDS011;59479;51.902;8.212;2023-06-22T13:15:05;6.37;;;3.77;;
71629;SDS011;59479;51.902;8.212;2023-06-22T13:17:31;6.10;;;3.88;;
71629;SDS011;59479;51.902;8.212;2023-06-22T13:19:56;5.40;;;3.53;;
71629;SDS011;59479;51.902;8.212;2023-06-22T13:22:28;5.23;;;3.40;;
71629;SDS011;59479;51.902;8.212;2023-06-22T13:24:58;7.00;;;4.03;;
71629;SDS011;59479;51.902;8.212;2023-06-22T13:27:27;6.72;;;4.35;;
71629;SDS011;59479;51.902;8.212;2023-06-22T13:30:18;6.05;;;4.03;;
71629;SDS011;59479;51.902;8.212;2023-06-22T13:33:01;7.50;;;4.88;;
71629;SDS011;59479;51.902;8.212;2023-06-22T13:38:59;6.72;;;4.82;;
71629;SDS011;59479;51.902;8.212;2023-06-22T13:41:51;6.47;;;3.95;;
71629;SDS011;59479;51.902;8.212;2023-06-22T13:44:28;6.78;;;4.65;;
71629;SDS011;59479;51.902;8.212;2023-06-22T13:47:02;8.60;;;4.85;;
71629;SDS011;59479;51.902;8.212;2023-06-22T13:49:28;7.28;;;4.30;;
71629;SDS011;59479;51.902;8.212;2023-06-22T13:52:05;5.45;;;3.75;;
71629;SDS011;59479;51.902;8.212;2023-06-22T13:54:35;7.30;;;4.38;;
71629;SDS011;59479;51.902;8.212;2023-06-22T13:57:00;6.68;;;4.28;;
71629;SDS011;59479;51.902;8.212;2023-06-22T13:59:26;7.13;;;4.53;;
71629;SDS011;59479;51.902;8.212;2023-06-22T14:01:53;7.03;;;4.30;;
71629;SDS011;59479;51.902;8.212;2023-06-22T14:04:18;7.57;;;4.27;;
71629;SDS011;59479;51.902;8.212;2023-06-22T14:06:43;6.83;;;4.27;;
71629;SDS011;59479;51.902;8.212;2023-06-22T14:09:09;8.13;;;5.03;;
71629;SDS011;59479;51.902;8.212;2023-06-22T14:11:34;7.85;;;4.30;;
71629;SDS011;59479;51.902;8.212;2023-06-22T14:14:00;6.88;;;4.53;;
71629;SDS011;59479;51.902;8.212;2023-06-22T14:16:25;7.27;;;4.00;;
71629;SDS011;59479;51.902;8.212;2023-06-22T14:18:51;8.23;;;4.83;;
71629;SDS011;59479;51.902;8.212;2023-06-22T14:21:16;6.27;;;4.03;;
71629;SDS011;59479;51.902;8.212;2023-06-22T14:23:41;7.70;;;4.87;;
71629;SDS011;59479;51.902;8.212;2023-06-22T14:26:06;5.90;;;3.55;;
71629;SDS011;59479;51.902;8.212;2023-06-22T14:28:32;8.77;;;5.53;;
71629;SDS011;59479;51.902;8.212;2023-06-22T14:30:57;7.13;;;4.30;;
71629;SDS011;59479;51.902;8.212;2023-06-22T14:33:23;6.47;;;4.33;;
71629;SDS011;59479;51.902;8.212;2023-06-22T14:35:48;8.10;;;5.17;;
71629;SDS011;59479;51.902;8.212;2023-06-22T14:38:14;7.15;;;4.32;;
71629;SDS011;59479;51.902;8.212;2023-06-22T14:40:39;9.43;;;4.87;;
71629;SDS011;59479;51.902;8.212;2023-06-22T14:43:05;7.33;;;4.00;;
71629;SDS011;59479;51.902;8.212;2023-06-22T14:45:32;7.00;;;4.82;;
71629;SDS011;59479;51.902;8.212;2023-06-22T14:47:58;8.07;;;4.70;;
71629;SDS011;59479;51.902;8.212;2023-06-22T14:50:23;6.87;;;4.07;;
71629;SDS011;59479;51.902;8.212;2023-06-22T14:52:48;7.45;;;3.88;;
71629;SDS011;59479;51.902;8.212;2023-06-22T14:55:14;6.15;;;3.83;;